Time;durP1;ratioP1;P1;durP2;ratioP2;P2;SDS_P1;SDS_P2;PMS_P1;PMS_P2;Temp;Humidity;BMP_temperature;BMP_pressure;BME280_temperature;BME280_humidity;BME280_pressure;Samples;Min_cycle;Max_cycle;Signal;HPM_P1;HPM_P2
2023/01/02 00:00:03;;;;;;;5.70;3.43;;;;;;;;;;4972522;28;20759;-78
2023/01/02 00:02:40;;;;;;;4.30;3.47;;;;;;;;;;4951088;28;20308;-79
2023/01/02 00:05:05;;;;;;;5.40;3.50;;;;;;;;;;4973751;28;20237;-78
2023/01/02 00:07:35;;;;;;;4.20;3.50;;;;;;;;;;4972877;28;20222;-80
2023/01/02 00:10:03;;;;;;;5.30;3.33;;;;;;;;;;4956865;28;20292;-78
2023/01/02 00:12:29;;;;;;;3.97;3.57;;;;;;;;;;4989443;28;20305;-80
2023/01/02 00:14:57;;;;;;;5.50;3.40;;;;;;;;;;5004452;28;20233;-80
2023/01/02 00:17:27;;;;;;;4.30;3.50;;;;;;;;;;4973356;28;20225;-80
2023/01/02 00:19:59;;;;;;;4.93;3.63;;;;;;;;;;4975388;28;20222;-79
2023/01/02 00:22:24;;;;;;;4.57;3.67;;;;;;;;;;4937048;28;20314;-78
2023/01/02 00:24:55;;;;;;;6.37;3.20;;;;;;;;;;4940161;28;21181;-79
2023/01/02 00:27:22;;;;;;;5.40;3.70;;;;;;;;;;4970245;28;20294;-80
2023/01/02 00:29:48;;;;;;;3.60;3.30;;;;;;;;;;5003317;28;20384;-79
2023/01/02 00:32:14;;;;;;;4.43;3.40;;;;;;;;;;4973508;28;20234;-79
2023/01/02 00:34:42;;;;;;;4.43;3.43;;;;;;;;;;5004047;28;20218;-79
2023/01/02 00:37:07;;;;;;;3.27;2.97;;;;;;;;;;4972650;28;20217;-79
2023/01/02 00:39:37;;;;;;;7.07;3.80;;;;;;;;;;4963683;28;20254;-80
2023/01/02 00:42:05;;;;;;;5.67;3.50;;;;;;;;;;4974231;28;20221;-81
2023/01/02 00:44:30;;;;;;;3.40;3.10;;;;;;;;;;4957602;28;20234;-79
2023/01/02 00:46:56;;;;;;;5.37;3.67;;;;;;;;;;4989144;28;20253;-78
2023/01/02 00:49:22;;;;;;;6.00;3.63;;;;;;;;;;4955811;28;20265;-80
2023/01/02 00:51:52;;;;;;;5.70;3.53;;;;;;;;;;4956389;28;20229;-78
2023/01/02 00:54:17;;;;;;;5.60;3.80;;;;;;;;;;5004285;28;20222;-80
2023/01/02 00:56:43;;;;;;;9.30;3.73;;;;;;;;;;4976883;28;20233;-77
2023/01/02 00:59:09;;;;;;;6.37;3.50;;;;;;;;;;4973248;28;20225;-79
2023/01/02 01:01:37;;;;;;;4.67;3.10;;;;;;;;;;4956530;28;20230;-79
2023/01/02 01:04:03;;;;;;;4.43;3.77;;;;;;;;;;4972012;28;20233;-79
2023/01/02 01:06:31;;;;;;;4.60;3.57;;;;;;;;;;4957269;28;20286;-80
2023/01/02 01:08:59;;;;;;;7.83;3.77;;;;;;;;;;4976722;28;20229;-77
2023/01/02 01:11:27;;;;;;;3.77;3.33;;;;;;;;;;4973124;28;20218;-80
2023/01/02 01:13:52;;;;;;;4.13;3.73;;;;;;;;;;4972849;28;20221;-79
2023/01/02 01:16:20;;;;;;;5.30;3.60;;;;;;;;;;4956262;28;20218;-80
2023/01/02 01:18:46;;;;;;;5.40;3.33;;;;;;;;;;4950596;28;20309;-79
2023/01/02 01:21:18;;;;;;;4.80;3.97;;;;;;;;;;4940862;28;20341;-80
2023/01/02 01:23:48;;;;;;;4.00;3.60;;;;;;;;;;4988890;28;20229;-78
2023/01/02 01:26:13;;;;;;;7.23;3.50;;;;;;;;;;4979292;28;20229;-79
2023/01/02 01:28:41;;;;;;;8.07;3.60;;;;;;;;;;4962851;28;20218;-78
2023/01/02 01:31:08;;;;;;;4.60;3.10;;;;;;;;;;4973373;28;20245;-80
2023/01/02 01:33:34;;;;;;;4.20;3.40;;;;;;;;;;4988990;28;20241;-81
2023/01/02 01:36:03;;;;;;;6.60;3.47;;;;;;;;;;4936170;28;20226;-79
2023/01/02 01:38:31;;;;;;;5.27;3.43;;;;;;;;;;4959551;28;20219;-79
2023/01/02 01:40:57;;;;;;;5.20;3.43;;;;;;;;;;4962900;28;20216;-77
2023/01/02 01:44:00;;;;;;;6.13;3.70;;;;;;;;;;4941767;28;20218;-79
2023/01/02 01:46:42;;;;;;;4.80;3.37;;;;;;;;;;4950367;28;20259;-79
2023/01/02 01:49:28;;;;;;;5.73;2.90;;;;;;;;;;4959568;28;20237;-79
2023/01/02 01:52:00;;;;;;;4.77;2.97;;;;;;;;;;4961649;28;20846;-78
2023/01/02 01:54:31;;;;;;;5.27;3.00;;;;;;;;;;4977751;28;20218;-77
2023/01/02 01:57:01;;;;;;;8.03;3.40;;;;;;;;;;4946731;28;20229;-78
2023/01/02 01:59:29;;;;;;;5.13;2.80;;;;;;;;;;4957689;28;20218;-78
2023/01/02 02:01:55;;;;;;;4.73;2.93;;;;;;;;;;4960308;28;20210;-78
2023/01/02 02:04:20;;;;;;;4.53;3.17;;;;;;;;;;4956192;28;20783;-78
2023/01/02 02:06:50;;;;;;;6.00;2.93;;;;;;;;;;4995572;28;20235;-78
2023/01/02 02:09:19;;;;;;;6.73;3.17;;;;;;;;;;4992522;28;20321;-78
2023/01/02 02:11:52;;;;;;;4.60;2.87;;;;;;;;;;4970629;28;20246;-78
2023/01/02 02:14:23;;;;;;;5.17;3.20;;;;;;;;;;4969042;28;20218;-78
2023/01/02 02:17:07;;;;;;;5.70;2.90;;;;;;;;;;4923644;28;20218;-77
2023/01/02 02:20:00;;;;;;;5.37;2.87;;;;;;;;;;4972909;28;20253;-78
2023/01/02 02:22:29;;;;;;;5.73;2.87;;;;;;;;;;4962142;28;20274;-78
2023/01/02 02:25:07;;;;;;;5.47;3.13;;;;;;;;;;4965534;28;20775;-80
2023/01/02 02:28:03;;;;;;;4.77;3.00;;;;;;;;;;4956781;28;20240;-78
2023/01/02 02:30:56;;;;;;;5.47;3.10;;;;;;;;;;4966779;28;20218;-78
2023/01/02 02:33:40;;;;;;;4.50;3.07;;;;;;;;;;4978992;28;20774;-79
2023/01/02 02:36:05;;;;;;;4.70;3.50;;;;;;;;;;4967406;28;20230;-76
2023/01/02 02:39:19;;;;;;;5.57;3.57;;;;;;;;;;4973073;28;20238;-78
2023/01/02 02:42:09;;;;;;;8.73;3.30;;;;;;;;;;4969319;28;20253;-77
2023/01/02 02:44:55;;;;;;;5.07;3.00;;;;;;;;;;4957843;28;20230;-79
2023/01/02 02:47:33;;;;;;;4.93;3.30;;;;;;;;;;4963527;28;20235;-78
2023/01/02 02:50:08;;;;;;;5.03;3.00;;;;;;;;;;4973273;28;20221;-78
2023/01/02 02:52:45;;;;;;;6.43;3.50;;;;;;;;;;4984723;28;20233;-79
2023/01/02 02:55:14;;;;;;;5.77;3.50;;;;;;;;;;4969050;28;20321;-78
2023/01/02 02:57:42;;;;;;;5.20;2.97;;;;;;;;;;4975590;28;20582;-79
2023/01/02 03:00:13;;;;;;;6.53;3.57;;;;;;;;;;4972705;28;20288;-79
2023/01/02 03:02:41;;;;;;;4.83;3.63;;;;;;;;;;4967977;28;20226;-79
2023/01/02 03:05:10;;;;;;;5.13;3.87;;;;;;;;;;4950822;28;20252;-79
2023/01/02 03:07:53;;;;;;;5.90;3.23;;;;;;;;;;4989132;28;20218;-78
2023/01/02 03:10:49;;;;;;;5.07;3.40;;;;;;;;;;4989138;28;20284;-78
2023/01/02 03:13:58;;;;;;;4.60;3.07;;;;;;;;;;4943786;28;20225;-79
2023/01/02 03:16:28;;;;;;;5.73;3.60;;;;;;;;;;4943017;28;20229;-77
2023/01/02 03:19:06;;;;;;;6.87;3.47;;;;;;;;;;4980156;28;20238;-77
2023/01/02 03:21:37;;;;;;;3.97;3.40;;;;;;;;;;5003417;28;20234;-77
2023/01/02 03:24:09;;;;;;;7.30;3.57;;;;;;;;;;4978171;28;20226;-77
2023/01/02 03:26:43;;;;;;;4.60;3.10;;;;;;;;;;4966486;28;20313;-77
2023/01/02 03:29:17;;;;;;;6.87;3.53;;;;;;;;;;4966308;28;20284;-79
2023/01/02 03:31:47;;;;;;;4.27;3.10;;;;;;;;;;4941239;28;20285;-79
2023/01/02 03:34:14;;;;;;;5.23;3.70;;;;;;;;;;4939860;28;20587;-78
2023/01/02 03:36:40;;;;;;;4.43;3.40;;;;;;;;;;4989656;28;20226;-79
2023/01/02 03:39:09;;;;;;;4.93;3.50;;;;;;;;;;4931008;28;20234;-78
2023/01/02 03:41:45;;;;;;;5.33;3.60;;;;;;;;;;4971151;28;20229;-78
2023/01/02 03:44:11;;;;;;;5.20;3.23;;;;;;;;;;4982490;28;20766;-79
2023/01/02 03:46:51;;;;;;;5.70;3.73;;;;;;;;;;4958104;28;20224;-78
2023/01/02 03:49:33;;;;;;;6.43;3.63;;;;;;;;;;4976556;28;20344;-79
2023/01/02 03:51:58;;;;;;;7.40;3.70;;;;;;;;;;4977084;28;20719;-79
2023/01/02 03:54:24;;;;;;;5.43;3.57;;;;;;;;;;4956488;28;20228;-77
2023/01/02 03:57:00;;;;;;;6.17;3.83;;;;;;;;;;4962074;28;20226;-78
2023/01/02 03:59:34;;;;;;;5.80;3.87;;;;;;;;;;4988396;28;20769;-79
2023/01/02 04:02:10;;;;;;;6.17;4.20;;;;;;;;;;4973294;28;20242;-77
2023/01/02 04:04:52;;;;;;;5.57;3.63;;;;;;;;;;4964866;28;20234;-78
2023/01/02 04:07:30;;;;;;;5.47;3.77;;;;;;;;;;4954269;28;20831;-78
2023/01/02 04:09:55;;;;;;;6.53;3.57;;;;;;;;;;4950116;28;20316;-78
2023/01/02 04:12:22;;;;;;;3.73;3.30;;;;;;;;;;4954263;28;20221;-78
2023/01/02 04:15:01;;;;;;;5.93;3.70;;;;;;;;;;4988589;28;20727;-77
2023/01/02 04:17:32;;;;;;;5.57;3.10;;;;;;;;;;4978456;28;20217;-78
2023/01/02 04:20:05;;;;;;;7.40;3.80;;;;;;;;;;4986218;28;20230;-78
2023/01/02 04:22:34;;;;;;;11.77;4.50;;;;;;;;;;4955364;28;20253;-78
2023/01/02 04:25:10;;;;;;;7.80;3.20;;;;;;;;;;4967376;28;20258;-77
2023/01/02 04:27:44;;;;;;;4.40;3.10;;;;;;;;;;4971692;28;20688;-77
2023/01/02 04:30:09;;;;;;;4.93;3.50;;;;;;;;;;4978560;28;20317;-78
2023/01/02 04:32:42;;;;;;;6.73;3.30;;;;;;;;;;4988098;28;20250;-78
2023/01/02 04:35:12;;;;;;;7.43;3.53;;;;;;;;;;4965087;28;20264;-78
2023/01/02 04:37:39;;;;;;;6.63;3.90;;;;;;;;;;4988543;28;20226;-78
2023/01/02 04:40:27;;;;;;;4.03;2.93;;;;;;;;;;4968823;28;20230;-78
2023/01/02 04:42:53;;;;;;;4.60;3.70;;;;;;;;;;4969152;28;20225;-77
2023/01/02 04:45:19;;;;;;;6.13;3.07;;;;;;;;;;4975954;28;20226;-77
2023/01/02 04:47:46;;;;;;;4.77;3.13;;;;;;;;;;4974303;28;20229;-76
2023/01/02 04:50:11;;;;;;;5.63;3.13;;;;;;;;;;4942928;28;20688;-78
2023/01/02 04:52:37;;;;;;;3.70;3.17;;;;;;;;;;4970948;28;20237;-77
2023/01/02 04:55:07;;;;;;;3.83;3.10;;;;;;;;;;4952839;28;20228;-77
2023/01/02 04:57:35;;;;;;;5.50;2.77;;;;;;;;;;4952330;28;20246;-77
2023/01/02 05:00:01;;;;;;;5.50;3.20;;;;;;;;;;4962456;28;20226;-78
2023/01/02 05:02:33;;;;;;;4.80;3.37;;;;;;;;;;4985146;28;20240;-78
2023/01/02 05:05:00;;;;;;;5.47;3.40;;;;;;;;;;4971454;28;20249;-78
2023/01/02 05:07:26;;;;;;;5.53;3.13;;;;;;;;;;4960929;28;20221;-77
2023/01/02 05:09:54;;;;;;;4.80;2.90;;;;;;;;;;4989231;28;20218;-79
2023/01/02 05:12:24;;;;;;;4.83;3.17;;;;;;;;;;4957102;28;20222;-78
2023/01/02 05:14:49;;;;;;;6.17;3.20;;;;;;;;;;4957622;28;20319;-78
2023/01/02 05:17:17;;;;;;;8.40;3.53;;;;;;;;;;4987359;28;20218;-77
2023/01/02 05:19:45;;;;;;;4.33;3.60;;;;;;;;;;4960352;28;20230;-79
2023/01/02 05:24:55;;;;;;;5.73;3.27;;;;;;;;;;4966666;28;20229;-80
2023/01/02 05:27:20;;;;;;;7.60;3.90;;;;;;;;;;5002290;28;20228;-79
2023/01/02 05:29:51;;;;;;;6.80;3.27;;;;;;;;;;4980181;28;20214;-79
2023/01/02 05:32:19;;;;;;;7.30;3.20;;;;;;;;;;4959183;28;20221;-79
2023/01/02 05:34:46;;;;;;;6.27;3.50;;;;;;;;;;4943466;28;20734;-78
2023/01/02 05:37:14;;;;;;;7.53;3.70;;;;;;;;;;4955461;28;20700;-79
2023/01/02 05:39:42;;;;;;;3.87;3.17;;;;;;;;;;4973829;28;20323;-78
2023/01/02 05:42:07;;;;;;;5.10;3.50;;;;;;;;;;4956446;28;20241;-79
2023/01/02 05:44:38;;;;;;;6.23;3.13;;;;;;;;;;4975393;28;20285;-79
2023/01/02 05:47:03;;;;;;;6.37;3.27;;;;;;;;;;4990997;28;20267;-79
2023/01/02 05:49:29;;;;;;;4.90;3.57;;;;;;;;;;4975343;28;20316;-79
2023/01/02 05:51:56;;;;;;;10.60;3.50;;;;;;;;;;4974396;28;20272;-79
2023/01/02 05:54:24;;;;;;;4.57;3.37;;;;;;;;;;4968973;28;20230;-80
2023/01/02 05:56:50;;;;;;;5.10;3.23;;;;;;;;;;4975558;28;20222;-79
2023/01/02 05:59:18;;;;;;;5.50;3.73;;;;;;;;;;4974857;28;20222;-80
2023/01/02 06:01:46;;;;;;;7.27;3.80;;;;;;;;;;4955857;28;20258;-80
2023/01/02 06:04:12;;;;;;;7.40;2.83;;;;;;;;;;4945601;28;20693;-80
2023/01/02 06:06:39;;;;;;;4.83;3.47;;;;;;;;;;4970511;28;20305;-77
2023/01/02 06:09:10;;;;;;;5.63;3.50;;;;;;;;;;4961642;28;20240;-79
2023/01/02 06:11:36;;;;;;;7.90;3.53;;;;;;;;;;4970670;28;20614;-78
2023/01/02 06:14:04;;;;;;;5.27;3.47;;;;;;;;;;4975847;28;20269;-79
2023/01/02 06:16:32;;;;;;;6.77;3.60;;;;;;;;;;4943654;28;20257;-82
2023/01/02 06:18:58;;;;;;;8.17;5.90;;;;;;;;;;4958331;28;20268;-79
2023/01/02 06:21:25;;;;;;;6.27;4.53;;;;;;;;;;4973691;28;20590;-77
2023/01/02 06:23:55;;;;;;;4.67;4.20;;;;;;;;;;4942385;28;20256;-79
2023/01/02 06:26:21;;;;;;;8.53;3.90;;;;;;;;;;4976773;28;20292;-79
2023/01/02 06:28:56;;;;;;;5.03;3.53;;;;;;;;;;4999438;28;20243;-79
2023/01/02 06:31:26;;;;;;;5.47;3.43;;;;;;;;;;4946454;28;20280;-78
2023/01/02 06:33:55;;;;;;;8.87;4.10;;;;;;;;;;4963221;28;20277;-80
2023/01/02 06:36:30;;;;;;;5.30;3.57;;;;;;;;;;4971576;28;20718;-78
2023/01/02 06:38:56;;;;;;;8.57;3.57;;;;;;;;;;4963417;28;20285;-79
2023/01/02 06:41:24;;;;;;;6.90;3.90;;;;;;;;;;4974983;28;20317;-79
2023/01/02 06:43:54;;;;;;;5.47;3.73;;;;;;;;;;4976954;28;20226;-77
2023/01/02 06:46:22;;;;;;;6.83;3.73;;;;;;;;;;4940935;28;20712;-80
2023/01/02 06:48:52;;;;;;;5.87;3.13;;;;;;;;;;4943663;28;20687;-79
2023/01/02 06:51:19;;;;;;;7.07;3.20;;;;;;;;;;4943261;28;20241;-78
2023/01/02 06:53:50;;;;;;;4.50;3.13;;;;;;;;;;4974671;28;20230;-79
2023/01/02 06:56:16;;;;;;;4.53;2.73;;;;;;;;;;4935524;28;20696;-78
2023/01/02 06:58:44;;;;;;;3.40;3.07;;;;;;;;;;4989397;28;20257;-79
2023/01/02 07:01:14;;;;;;;5.90;3.43;;;;;;;;;;4974920;28;21208;-81
2023/01/02 07:03:40;;;;;;;5.93;3.50;;;;;;;;;;4943491;28;20228;-80
2023/01/02 07:06:10;;;;;;;5.73;3.60;;;;;;;;;;4990725;28;20983;-80
2023/01/02 07:08:36;;;;;;;7.63;3.30;;;;;;;;;;4953322;28;20222;-80
2023/01/02 07:11:10;;;;;;;5.33;3.37;;;;;;;;;;4975001;28;20237;-79
2023/01/02 07:13:39;;;;;;;7.20;3.50;;;;;;;;;;4984120;28;20241;-79
2023/01/02 07:16:05;;;;;;;5.50;3.07;;;;;;;;;;4990944;28;20226;-79
2023/01/02 07:18:34;;;;;;;5.90;2.90;;;;;;;;;;4973833;28;20214;-79
2023/01/02 07:21:02;;;;;;;5.67;3.20;;;;;;;;;;4976129;28;20287;-82
2023/01/02 07:23:32;;;;;;;3.90;2.97;;;;;;;;;;4959108;28;20233;-81
2023/01/02 07:25:59;;;;;;;4.33;3.00;;;;;;;;;;4955731;28;20235;-80
2023/01/02 07:28:25;;;;;;;5.10;2.90;;;;;;;;;;4964858;28;20225;-81
2023/01/02 07:30:53;;;;;;;6.50;2.90;;;;;;;;;;4954160;28;20238;-81
2023/01/02 07:33:20;;;;;;;4.30;2.90;;;;;;;;;;4982095;28;20250;-80
2023/01/02 07:35:48;;;;;;;5.20;3.40;;;;;;;;;;4977978;28;20224;-79
2023/01/02 07:38:17;;;;;;;7.07;2.93;;;;;;;;;;4977769;28;20991;-82
2023/01/02 07:40:42;;;;;;;3.97;2.63;;;;;;;;;;4973958;28;20302;-81
2023/01/02 07:43:12;;;;;;;5.27;2.90;;;;;;;;;;4959312;28;20222;-81
2023/01/02 07:45:40;;;;;;;3.57;2.47;;;;;;;;;;4984754;28;20782;-80
2023/01/02 07:48:10;;;;;;;2.93;2.60;;;;;;;;;;4988839;28;20226;-78
2023/01/02 07:50:38;;;;;;;4.13;2.87;;;;;;;;;;4972210;28;20233;-82
2023/01/02 07:53:04;;;;;;;3.63;2.60;;;;;;;;;;4990918;28;20233;-80
2023/01/02 07:55:29;;;;;;;5.00;2.50;;;;;;;;;;4994842;28;20229;-80
2023/01/02 07:57:55;;;;;;;7.53;2.90;;;;;;;;;;4946716;28;20871;-81
2023/01/02 08:00:23;;;;;;;3.77;2.50;;;;;;;;;;4944808;28;20684;-79
2023/01/02 08:02:53;;;;;;;5.30;2.83;;;;;;;;;;4969194;28;20218;-81
2023/01/02 08:05:21;;;;;;;7.07;2.70;;;;;;;;;;5005642;28;20715;-79
2023/01/02 08:07:49;;;;;;;4.40;2.47;;;;;;;;;;4949856;28;20230;-82
2023/01/02 08:10:15;;;;;;;5.77;3.30;;;;;;;;;;4944851;28;20237;-81
2023/01/02 08:12:40;;;;;;;4.33;2.70;;;;;;;;;;4942473;23;20237;-85
2023/01/02 08:15:06;;;;;;;4.53;2.47;;;;;;;;;;4918717;28;20219;-87
2023/01/02 08:17:32;;;;;;;4.17;2.50;;;;;;;;;;4914537;29;20281;-86
2023/01/02 08:19:57;;;;;;;3.17;2.17;;;;;;;;;;4911884;29;20227;-88
2023/01/02 08:22:25;;;;;;;4.53;2.70;;;;;;;;;;4908291;28;20243;-87
2023/01/02 08:24:53;;;;;;;4.53;2.47;;;;;;;;;;4905324;29;20852;-85
2023/01/02 08:27:21;;;;;;;5.53;2.43;;;;;;;;;;4894151;28;20721;-87
2023/01/02 08:29:50;;;;;;;4.23;2.60;;;;;;;;;;4891087;29;20604;-86
2023/01/02 08:32:16;;;;;;;5.20;2.73;;;;;;;;;;4943477;28;20228;-88
2023/01/02 08:34:43;;;;;;;4.53;2.43;;;;;;;;;;4907705;29;20234;-85
2023/01/02 08:37:09;;;;;;;4.97;2.43;;;;;;;;;;4893944;28;20231;-86
2023/01/02 08:39:34;;;;;;;5.03;3.00;;;;;;;;;;4879993;29;20229;-86
2023/01/02 08:42:02;;;;;;;4.50;2.40;;;;;;;;;;4927318;28;20741;-86
2023/01/02 08:44:36;;;;;;;3.50;2.47;;;;;;;;;;4941424;28;20230;-86
2023/01/02 08:47:03;;;;;;;4.60;2.60;;;;;;;;;;4930927;28;20269;-85
2023/01/02 08:49:28;;;;;;;4.40;2.40;;;;;;;;;;4909636;29;20239;-85
2023/01/02 08:51:56;;;;;;;4.37;2.47;;;;;;;;;;4897070;29;20234;-88
2023/01/02 08:54:22;;;;;;;8.17;2.80;;;;;;;;;;4926483;28;20606;-88
2023/01/02 08:56:54;;;;;;;3.87;2.40;;;;;;;;;;4928471;29;20227;-86
2023/01/02 08:59:22;;;;;;;3.57;2.40;;;;;;;;;;4916103;28;20227;-84
2023/01/02 09:01:48;;;;;;;3.80;2.20;;;;;;;;;;4927271;29;20231;-83
2023/01/02 09:04:13;;;;;;;6.00;2.30;;;;;;;;;;4920332;28;21304;-86
2023/01/02 09:06:39;;;;;;;4.93;2.43;;;;;;;;;;4928916;29;20236;-84
2023/01/02 09:09:07;;;;;;;3.40;2.17;;;;;;;;;;4904236;28;20784;-86
2023/01/02 09:11:44;;;;;;;;;;;;;;;;;;;;;
2023/01/02 09:14:19;;;;;;;4.27;2.40;;;;;;;;;;4945008;23;20301;-77
2023/01/02 09:16:44;;;;;;;4.53;2.00;;;;;;;;;;4920975;28;20264;-75
2023/01/02 09:19:13;;;;;;;3.63;2.30;;;;;;;;;;4930549;28;20217;-77
2023/01/02 09:21:40;;;;;;;4.90;2.30;;;;;;;;;;4936054;28;20234;-76
2023/01/02 09:24:09;;;;;;;3.20;1.80;;;;;;;;;;4902748;28;20274;-76
2023/01/02 09:26:40;;;;;;;3.67;2.13;;;;;;;;;;4945252;28;20241;-76
2023/01/02 09:29:06;;;;;;;2.60;1.90;;;;;;;;;;4945292;28;21088;-75
2023/01/02 09:31:31;;;;;;;3.77;1.90;;;;;;;;;;4932508;28;20231;-77
2023/01/02 09:33:57;;;;;;;3.07;1.80;;;;;;;;;;4937207;28;20227;-80
2023/01/02 09:36:25;;;;;;;5.50;1.80;;;;;;;;;;4956357;28;20218;-76
2023/01/02 09:38:54;;;;;;;2.53;1.70;;;;;;;;;;4956727;28;20622;-76
2023/01/02 09:41:38;;;;;;;2.57;1.80;;;;;;;;;;4956825;28;20292;-76
2023/01/02 09:44:22;;;;;;;1.87;1.50;;;;;;;;;;4957581;28;20241;-75
2023/01/02 09:46:59;;;;;;;4.63;1.70;;;;;;;;;;4957332;28;20325;-74
2023/01/02 09:49:48;;;;;;;2.43;1.80;;;;;;;;;;4940596;28;20234;-76
2023/01/02 09:52:37;;;;;;;3.97;1.60;;;;;;;;;;4943298;28;20236;-74
2023/01/02 09:55:06;;;;;;;2.70;1.63;;;;;;;;;;4951493;28;21642;-76
2023/01/02 09:57:43;;;;;;;2.38;1.70;;;;;;;;;;4952568;28;20242;-77
2023/01/02 10:00:30;;;;;;;2.85;1.60;;;;;;;;;;4923878;28;20222;-76
2023/01/02 10:03:32;;;;;;;2.05;1.85;;;;;;;;;;4947522;28;20272;-76
2023/01/02 10:06:19;;;;;;;3.23;1.93;;;;;;;;;;4952520;28;20237;-76
2023/01/02 10:09:08;;;;;;;5.20;2.17;;;;;;;;;;4949536;28;20292;-75
2023/01/02 10:12:26;;;;;;;4.00;2.10;;;;;;;;;;4942410;28;20242;-76
2023/01/02 10:14:53;;;;;;;2.87;2.00;;;;;;;;;;4843054;29;20233;-73
2023/01/02 10:17:20;;;;;;;2.97;2.27;;;;;;;;;;4923891;29;20242;-74
2023/01/02 10:19:57;;;;;;;4.37;2.40;;;;;;;;;;4914576;29;20321;-75
2023/01/02 10:22:41;;;;;;;1.93;1.63;;;;;;;;;;4936263;28;20231;-75
2023/01/02 10:25:35;;;;;;;1.90;1.57;;;;;;;;;;4914580;29;20314;-75
2023/01/02 10:28:31;;;;;;;2.10;1.70;;;;;;;;;;4936176;29;20230;-75
2023/01/02 10:31:09;;;;;;;2.30;1.70;;;;;;;;;;4910817;29;20243;-79
2023/01/02 10:33:58;;;;;;;2.37;1.60;;;;;;;;;;4925698;28;20235;-77
2023/01/02 10:36:34;;;;;;;5.03;1.90;;;;;;;;;;4915034;28;20696;-76
2023/01/02 10:39:05;;;;;;;1.97;1.60;;;;;;;;;;4943056;28;20234;-76
2023/01/02 10:41:33;;;;;;;2.57;1.60;;;;;;;;;;4935517;28;20238;-77
2023/01/02 10:44:24;;;;;;;3.70;1.60;;;;;;;;;;4940114;28;20586;-78
2023/01/02 10:46:51;;;;;;;3.93;3.37;;;;;;;;;;4944289;28;20250;-76
2023/01/02 10:49:17;;;;;;;3.28;1.38;;;;;;;;;;4944952;28;20247;-76
2023/01/02 10:51:47;;;;;;;2.67;1.50;;;;;;;;;;4946054;29;20242;-78
2023/01/02 10:54:15;;;;;;;2.40;1.67;;;;;;;;;;4949694;28;20226;-77
2023/01/02 10:56:41;;;;;;;2.33;1.63;;;;;;;;;;4957852;28;20222;-76
2023/01/02 10:59:23;;;;;;;2.50;1.70;;;;;;;;;;4940386;28;20245;-77
2023/01/02 11:01:56;;;;;;;1.90;1.70;;;;;;;;;;4941560;29;20222;-77
2023/01/02 11:04:25;;;;;;;3.43;1.60;;;;;;;;;;4936604;28;20315;-77
2023/01/02 11:06:53;;;;;;;2.57;1.60;;;;;;;;;;4936435;28;20368;-75
2023/01/02 11:09:19;;;;;;;2.80;1.60;;;;;;;;;;4935697;28;20231;-75
2023/01/02 11:12:09;;;;;;;2.17;1.63;;;;;;;;;;4923007;29;20226;-76
2023/01/02 11:14:42;;;;;;;2.50;1.73;;;;;;;;;;4963419;28;20284;-77
2023/01/02 11:17:24;;;;;;;1.83;1.53;;;;;;;;;;4962282;28;21303;-78
2023/01/02 11:19:53;;;;;;;1.87;1.60;;;;;;;;;;4982893;28;20214;-75
2023/01/02 11:22:21;;;;;;;3.70;1.90;;;;;;;;;;4961464;28;20233;-76
2023/01/02 11:24:58;;;;;;;4.00;1.70;;;;;;;;;;4965254;28;20225;-77
2023/01/02 11:27:34;;;;;;;2.60;1.63;;;;;;;;;;4961088;28;20236;-77
2023/01/02 11:30:04;;;;;;;1.77;1.63;;;;;;;;;;4959980;28;20221;-78
2023/01/02 11:32:37;;;;;;;4.23;2.00;;;;;;;;;;4961594;28;20222;-77
2023/01/02 11:35:06;;;;;;;1.80;1.70;;;;;;;;;;4976766;28;20277;-77
2023/01/02 11:37:33;;;;;;;2.20;1.70;;;;;;;;;;4978237;28;20304;-77
2023/01/02 11:40:14;;;;;;;2.10;1.60;;;;;;;;;;4958902;28;20232;-76
2023/01/02 11:45:27;;;;;;;1.90;1.43;;;;;;;;;;4966062;28;20230;-75
2023/01/02 11:47:59;;;;;;;3.23;1.43;;;;;;;;;;4978579;28;20232;-76
2023/01/02 11:50:31;;;;;;;1.87;1.60;;;;;;;;;;4946783;28;20309;-77
2023/01/02 11:53:00;;;;;;;1.13;1.10;;;;;;;;;;4977060;28;20241;-76
2023/01/02 11:56:03;;;;;;;1.47;1.37;;;;;;;;;;4961251;28;20236;-77
2023/01/02 11:58:32;;;;;;;1.20;1.10;;;;;;;;;;4975431;28;20272;-76
2023/01/02 12:01:22;;;;;;;1.63;1.40;;;;;;;;;;4977155;28;20293;-76
2023/01/02 12:03:48;;;;;;;1.40;1.30;;;;;;;;;;4975855;28;20256;-77
2023/01/02 12:06:27;;;;;;;1.40;1.30;;;;;;;;;;4980069;28;20766;-76
2023/01/02 12:09:03;;;;;;;3.13;1.10;;;;;;;;;;4959664;28;21566;-76
2023/01/02 12:11:40;;;;;;;1.00;1.00;;;;;;;;;;4978780;28;20233;-76
2023/01/02 12:14:11;;;;;;;1.10;1.10;;;;;;;;;;4965883;28;20240;-76
2023/01/02 12:16:42;;;;;;;1.17;1.13;;;;;;;;;;4974256;28;20252;-77
2023/01/02 12:19:34;;;;;;;0.97;0.87;;;;;;;;;;4963599;28;20275;-76
2023/01/02 12:22:29;;;;;;;2.27;2.07;;;;;;;;;;4975406;28;20233;-77
2023/01/02 12:24:57;;;;;;;1.70;1.60;;;;;;;;;;4964884;28;20367;-78
2023/01/02 12:27:37;;;;;;;1.87;1.77;;;;;;;;;;4973016;28;20226;-75
2023/01/02 12:30:19;;;;;;;1.60;1.50;;;;;;;;;;4977011;28;20271;-76
2023/01/02 12:32:45;;;;;;;1.20;1.20;;;;;;;;;;4984340;28;20240;-77
2023/01/02 12:35:41;;;;;;;2.00;1.90;;;;;;;;;;4972263;28;20257;-77
2023/01/02 12:38:10;;;;;;;1.70;1.60;;;;;;;;;;4935634;28;20221;-77
2023/01/02 12:41:01;;;;;;;1.30;1.20;;;;;;;;;;4985239;28;20232;-79
2023/01/02 12:43:28;;;;;;;0.87;0.87;;;;;;;;;;4980435;28;20229;-76
2023/01/02 12:45:57;;;;;;;0.60;0.60;;;;;;;;;;4986290;28;20321;-80
2023/01/02 12:48:38;;;;;;;0.97;0.90;;;;;;;;;;4985888;28;20250;-77
2023/01/02 12:51:40;;;;;;;0.90;0.90;;;;;;;;;;4966765;28;20221;-78
2023/01/02 12:54:30;;;;;;;0.73;0.67;;;;;;;;;;4920292;28;20236;-75
2023/01/02 12:57:08;;;;;;;0.50;0.50;;;;;;;;;;4978897;28;20707;-76
2023/01/02 12:59:53;;;;;;;0.60;0.60;;;;;;;;;;4958422;28;20216;-76
2023/01/02 13:02:45;;;;;;;0.60;0.60;;;;;;;;;;4959069;28;20718;-75
2023/01/02 13:05:19;;;;;;;0.80;0.80;;;;;;;;;;4990986;28;20229;-75
2023/01/02 13:07:54;;;;;;;0.93;0.93;;;;;;;;;;4973964;28;20229;-75
2023/01/02 13:10:21;;;;;;;0.70;0.70;;;;;;;;;;4994308;28;20284;-77
2023/01/02 13:12:47;;;;;;;0.77;0.77;;;;;;;;;;4981610;28;20221;-75
2023/01/02 13:15:20;;;;;;;0.43;0.43;;;;;;;;;;4955964;28;20221;-79
2023/01/02 13:17:59;;;;;;;0.60;0.60;;;;;;;;;;5001490;28;20252;-77
2023/01/02 13:20:40;;;;;;;0.40;0.40;;;;;;;;;;4963771;28;20690;-77
2023/01/02 13:23:23;;;;;;;1.10;1.00;;;;;;;;;;4978793;28;20222;-78
2023/01/02 13:25:58;;;;;;;0.60;0.60;;;;;;;;;;4954654;28;20233;-77
2023/01/02 13:28:24;;;;;;;1.30;1.20;;;;;;;;;;4945076;28;20234;-77
2023/01/02 13:30:52;;;;;;;0.53;0.50;;;;;;;;;;4978573;28;20295;-76
2023/01/02 13:33:28;;;;;;;0.77;0.77;;;;;;;;;;4989108;28;20759;-77
2023/01/02 13:35:54;;;;;;;0.60;0.60;;;;;;;;;;4982198;28;20228;-76
2023/01/02 13:38:20;;;;;;;0.83;0.70;;;;;;;;;;4999359;28;20322;-76
2023/01/02 13:40:53;;;;;;;0.90;0.90;;;;;;;;;;4955412;28;20236;-75
2023/01/02 13:43:21;;;;;;;0.70;0.70;;;;;;;;;;4979589;28;20253;-76
2023/01/02 13:45:49;;;;;;;0.87;0.87;;;;;;;;;;4944966;28;20248;-76
2023/01/02 13:48:39;;;;;;;1.23;1.00;;;;;;;;;;4975515;28;20261;-74
2023/01/02 13:51:32;;;;;;;0.63;0.63;;;;;;;;;;4976078;28;20240;-74
2023/01/02 13:54:15;;;;;;;3.60;3.30;;;;;;;;;;4972795;28;20233;-76
2023/01/02 13:57:12;;;;;;;4.03;3.63;;;;;;;;;;4945142;28;20218;-77
2023/01/02 13:59:59;;;;;;;6.83;6.23;;;;;;;;;;4981137;28;20218;-75
2023/01/02 14:02:25;;;;;;;2.90;2.70;;;;;;;;;;4944331;28;21496;-76
2023/01/02 14:04:50;;;;;;;3.37;3.07;;;;;;;;;;4962632;28;20279;-77
2023/01/02 14:07:25;;;;;;;2.27;1.80;;;;;;;;;;4951917;28;20230;-77
2023/01/02 14:10:18;;;;;;;1.93;1.40;;;;;;;;;;4967425;28;20264;-77
2023/01/02 14:12:56;;;;;;;2.07;1.97;;;;;;;;;;4983995;28;20229;-77
2023/01/02 14:15:23;;;;;;;1.63;1.20;;;;;;;;;;4968891;28;20221;-77
2023/01/02 14:18:15;;;;;;;1.23;1.00;;;;;;;;;;4985128;28;20229;-76
2023/01/02 14:20:44;;;;;;;1.50;1.40;;;;;;;;;;4984892;28;20225;-77
2023/01/02 14:23:26;;;;;;;1.57;0.80;;;;;;;;;;4972730;28;20237;-78
2023/01/02 14:25:51;;;;;;;1.50;0.70;;;;;;;;;;4978315;28;20344;-78
2023/01/02 14:28:33;;;;;;;1.10;0.77;;;;;;;;;;4965829;28;20324;-77
2023/01/02 14:31:27;;;;;;;0.77;0.77;;;;;;;;;;4954189;28;20233;-77
2023/01/02 14:33:53;;;;;;;0.77;0.73;;;;;;;;;;4952777;28;20230;-78
2023/01/02 14:36:19;;;;;;;0.67;0.67;;;;;;;;;;4948034;28;20237;-77
2023/01/02 14:38:54;;;;;;;0.77;0.77;;;;;;;;;;4976376;28;20230;-79
2023/01/02 14:44:43;;;;;;;0.70;0.70;;;;;;;;;;4978760;28;20308;-77
2023/01/02 14:47:17;;;;;;;0.60;0.60;;;;;;;;;;4950359;28;20230;-77
2023/01/02 14:49:43;;;;;;;0.80;0.80;;;;;;;;;;4965540;28;20221;-78
2023/01/02 14:52:17;;;;;;;1.40;1.30;;;;;;;;;;4960056;28;21096;-78
2023/01/02 14:54:52;;;;;;;0.83;0.83;;;;;;;;;;4954346;28;20218;-79
2023/01/02 14:57:38;;;;;;;2.00;0.87;;;;;;;;;;4948624;28;20219;-76
2023/01/02 15:00:13;;;;;;;1.47;1.00;;;;;;;;;;4973162;28;20277;-77
2023/01/02 15:02:42;;;;;;;1.60;1.50;;;;;;;;;;4976035;28;20233;-76
2023/01/02 15:05:10;;;;;;;1.07;1.00;;;;;;;;;;4957273;28;20241;-76
2023/01/02 15:07:38;;;;;;;1.20;1.10;;;;;;;;;;4944250;28;20275;-77
2023/01/02 15:10:14;;;;;;;1.00;1.00;;;;;;;;;;4962264;28;20225;-78
2023/01/02 15:15:56;;;;;;;1.73;1.63;;;;;;;;;;4975809;28;20230;-79
2023/01/02 15:18:28;;;;;;;1.20;1.20;;;;;;;;;;4977175;28;20225;-79
2023/01/02 15:20:55;;;;;;;1.23;1.13;;;;;;;;;;4973591;28;20375;-79
2023/01/02 15:23:23;;;;;;;2.10;1.60;;;;;;;;;;4962427;28;20218;-78
2023/01/02 15:25:48;;;;;;;1.60;1.43;;;;;;;;;;4975362;28;20237;-78